sensor_id;sensor_type;location;lat;lon;timestamp;noise_LAeq;noise_LA_min;noise_LA_max;noise_LA01;noise_LA95
69617;Laerm;58075;52.218;4.640;2022-08-01T00:00:11;35.54;33.22;39.04;;
69617;Laerm;58075;52.218;4.640;2022-08-01T00:00:21;34.61;32.09;39.72;;
69617;Laerm;58075;52.218;4.640;2022-08-01T00:00:32;37.06;34.18;40.95;;
69617;Laerm;58075;52.218;4.640;2022-08-01T00:00:42;35.66;32.32;44.00;;
69617;Laerm;58075;52.218;4.640;2022-08-01T00:00:52;35.78;33.29;40.10;;
69617;Laerm;58075;52.218;4.640;2022-08-01T00:01:03;34.53;31.75;38.16;;
69617;Laerm;58075;52.218;4.640;2022-08-01T00:01:13;34.72;32.63;36.93;;
69617;Laerm;58075;52.218;4.640;2022-08-01T00:01:24;34.50;31.16;37.46;;
69617;Laerm;58075;52.218;4.640;2022-08-01T00:01:34;33.47;31.20;37.28;;
69617;Laerm;58075;52.218;4.640;2022-08-01T00:01:45;33.46;31.22;41.37;;
69617;Laerm;58075;52.218;4.640;2022-08-01T00:01:55;34.51;31.59;39.09;;
69617;Laerm;58075;52.218;4.640;2022-08-01T00:02:05;36.95;31.99;46.34;;
69617;Laerm;58075;52.218;4.640;2022-08-01T00:02:16;34.50;31.46;49.86;;
69617;Laerm;58075;52.218;4.640;2022-08-01T00:02:26;32.83;30.85;34.70;;
69617;Laerm;58075;52.218;4.640;2022-08-01T00:02:37;33.35;30.83;38.12;;
69617;Laerm;58075;52.218;4.640;2022-08-01T00:02:50;33.42;30.38;36.63;;
69617;Laerm;58075;52.218;4.640;2022-08-01T00:03:01;34.30;32.04;39.49;;
69617;Laerm;58075;52.218;4.640;2022-08-01T00:03:11;36.84;32.88;42.39;;
69617;Laerm;58075;52.218;4.640;2022-08-01T00:03:21;36.28;33.06;40.28;;
69617;Laerm;58075;52.218;4.640;2022-08-01T00:03:32;34.67;32.17;38.46;;
69617;Laerm;58075;52.218;4.640;2022-08-01T00:03:42;34.44;31.68;37.94;;
69617;Laerm;58075;52.218;4.640;2022-08-01T00:03:52;32.02;30.18;37.31;;
69617;Laerm;58075;52.218;4.640;2022-08-01T00:04:03;32.71;30.52;41.82;;
69617;Laerm;58075;52.218;4.640;2022-08-01T00:04:13;35.54;31.78;41.47;;
69617;Laerm;58075;52.218;4.640;2022-08-01T00:04:23;34.13;31.90;37.70;;
69617;Laerm;58075;52.218;4.640;2022-08-01T00:04:33;33.18;30.75;43.51;;
69617;Laerm;58075;52.218;4.640;2022-08-01T00:04:44;36.09;32.45;42.13;;
69617;Laerm;58075;52.218;4.640;2022-08-01T00:04:54;34.20;31.41;37.14;;
69617;Laerm;58075;52.218;4.640;2022-08-01T00:05:05;32.70;30.74;34.90;;
69617;Laerm;58075;52.218;4.640;2022-08-01T00:05:16;33.22;30.98;39.89;;
69617;Laerm;58075;52.218;4.640;2022-08-01T00:05:26;33.34;31.09;37.04;;
69617;Laerm;58075;52.218;4.640;2022-08-01T00:05:36;34.87;31.75;38.34;;
69617;Laerm;58075;52.218;4.640;2022-08-01T00:05:47;36.86;32.54;42.23;;
69617;Laerm;58075;52.218;4.640;2022-08-01T00:05:57;41.87;33.99;48.81;;
69617;Laerm;58075;52.218;4.640;2022-08-01T00:06:07;40.86;33.77;47.13;;
69617;Laerm;58075;52.218;4.640;2022-08-01T00:06:18;38.56;33.69;43.40;;
69617;Laerm;58075;52.218;4.640;2022-08-01T00:06:28;37.82;33.67;44.87;;
69617;Laerm;58075;52.218;4.640;2022-08-01T00:06:38;34.35;32.11;37.69;;
69617;Laerm;58075;52.218;4.640;2022-08-01T00:06:48;33.60;31.14;37.22;;
69617;Laerm;58075;52.218;4.640;2022-08-01T00:06:59;35.95;32.30;40.58;;
69617;Laerm;58075;52.218;4.640;2022-08-01T00:07:10;34.33;31.44;37.73;;
69617;Laerm;58075;52.218;4.640;2022-08-01T00:07:20;35.09;32.10;39.11;;
69617;Laerm;58075;52.218;4.640;2022-08-01T00:07:30;34.55;31.89;37.85;;
69617;Laerm;58075;52.218;4.640;2022-08-01T00:07:41;33.14;30.62;40.39;;
69617;Laerm;58075;52.218;4.640;2022-08-01T00:07:51;33.19;31.23;36.81;;
69617;Laerm;58075;52.218;4.640;2022-08-01T00:08:01;33.05;30.99;35.80;;
69617;Laerm;58075;52.218;4.640;2022-08-01T00:08:11;33.17;30.92;35.89;;
69617;Laerm;58075;52.218;4.640;2022-08-01T00:08:22;33.69;31.21;36.58;;
69617;Laerm;58075;52.218;4.640;2022-08-01T00:08:32;35.22;32.18;38.27;;
69617;Laerm;58075;52.218;4.640;2022-08-01T00:08:42;36.53;33.43;39.57;;
69617;Laerm;58075;52.218;4.640;2022-08-01T00:08:53;39.59;34.14;47.25;;
69617;Laerm;58075;52.218;4.640;2022-08-01T00:09:03;44.87;36.72;52.63;;
69617;Laerm;58075;52.218;4.640;2022-08-01T00:09:13;40.95;36.54;47.66;;
69617;Laerm;58075;52.218;4.640;2022-08-01T00:09:24;39.62;34.78;45.17;;
69617;Laerm;58075;52.218;4.640;2022-08-01T00:09:34;37.15;33.63;42.12;;
69617;Laerm;58075;52.218;4.640;2022-08-01T00:09:44;34.73;32.28;37.84;;
69617;Laerm;58075;52.218;4.640;2022-08-01T00:09:55;33.19;31.27;35.33;;
69617;Laerm;58075;52.218;4.640;2022-08-01T00:10:06;32.93;31.11;35.61;;
69617;Laerm;58075;52.218;4.640;2022-08-01T00:10:17;34.85;31.83;39.16;;
69617;Laerm;58075;52.218;4.640;2022-08-01T00:10:27;34.87;32.43;37.33;;
69617;Laerm;58075;52.218;4.640;2022-08-01T00:10:38;33.87;31.22;36.83;;
69617;Laerm;58075;52.218;4.640;2022-08-01T00:10:48;33.78;31.91;36.86;;
69617;Laerm;58075;52.218;4.640;2022-08-01T00:10:58;34.23;31.64;37.38;;
69617;Laerm;58075;52.218;4.640;2022-08-01T00:11:08;33.92;31.48;37.37;;
69617;Laerm;58075;52.218;4.640;2022-08-01T00:11:19;34.70;32.39;38.24;;
69617;Laerm;58075;52.218;4.640;2022-08-01T00:11:29;36.15;33.35;39.72;;
69617;Laerm;58075;52.218;4.640;2022-08-01T00:11:39;36.43;33.79;38.77;;
69617;Laerm;58075;52.218;4.640;2022-08-01T00:11:51;35.43;32.80;38.40;;
69617;Laerm;58075;52.218;4.640;2022-08-01T00:12:02;36.72;33.32;39.35;;
69617;Laerm;58075;52.218;4.640;2022-08-01T00:12:12;35.62;32.17;41.14;;
69617;Laerm;58075;52.218;4.640;2022-08-01T00:12:22;41.45;32.90;47.17;;
69617;Laerm;58075;52.218;4.640;2022-08-01T00:12:33;35.78;32.04;40.01;;
69617;Laerm;58075;52.218;4.640;2022-08-01T00:12:43;32.65;30.88;35.08;;
69617;Laerm;58075;52.218;4.640;2022-08-01T00:12:54;35.69;32.48;41.94;;
69617;Laerm;58075;52.218;4.640;2022-08-01T00:13:04;34.12;32.06;36.67;;
69617;Laerm;58075;52.218;4.640;2022-08-01T00:13:14;33.80;31.69;37.43;;
69617;Laerm;58075;52.218;4.640;2022-08-01T00:13:25;34.35;31.77;37.38;;
69617;Laerm;58075;52.218;4.640;2022-08-01T00:13:35;35.17;32.40;38.72;;
69617;Laerm;58075;52.218;4.640;2022-08-01T00:13:45;35.92;32.04;40.69;;
69617;Laerm;58075;52.218;4.640;2022-08-01T00:13:56;37.81;33.51;41.76;;
69617;Laerm;58075;52.218;4.640;2022-08-01T00:14:06;38.53;34.31;41.41;;
69617;Laerm;58075;52.218;4.640;2022-08-01T00:14:18;35.71;33.21;38.62;;
69617;Laerm;58075;52.218;4.640;2022-08-01T00:14:28;34.70;32.23;37.94;;
69617;Laerm;58075;52.218;4.640;2022-08-01T00:14:38;35.27;32.99;37.61;;
69617;Laerm;58075;52.218;4.640;2022-08-01T00:14:49;35.42;32.72;41.72;;
69617;Laerm;58075;52.218;4.640;2022-08-01T00:14:59;33.92;31.69;37.86;;
69617;Laerm;58075;52.218;4.640;2022-08-01T00:15:11;35.93;33.71;41.79;;
69617;Laerm;58075;52.218;4.640;2022-08-01T00:15:21;36.95;34.81;40.29;;
69617;Laerm;58075;52.218;4.640;2022-08-01T00:15:32;37.54;33.34;41.27;;
69617;Laerm;58075;52.218;4.640;2022-08-01T00:15:42;37.45;34.11;42.39;;
69617;Laerm;58075;52.218;4.640;2022-08-01T00:15:52;41.07;33.99;44.91;;
69617;Laerm;58075;52.218;4.640;2022-08-01T00:16:03;42.32;37.46;45.46;;
69617;Laerm;58075;52.218;4.640;2022-08-01T00:16:13;39.06;32.35;44.53;;
69617;Laerm;58075;52.218;4.640;2022-08-01T00:16:23;35.34;31.39;40.36;;
69617;Laerm;58075;52.218;4.640;2022-08-01T00:16:34;35.67;32.57;40.31;;
69617;Laerm;58075;52.218;4.640;2022-08-01T00:16:44;35.46;31.72;46.99;;
69617;Laerm;58075;52.218;4.640;2022-08-01T00:16:55;35.85;32.60;42.02;;
69617;Laerm;58075;52.218;4.640;2022-08-01T00:17:05;35.30;32.93;39.22;;
69617;Laerm;58075;52.218;4.640;2022-08-01T00:17:15;34.78;32.43;38.08;;
69617;Laerm;58075;52.218;4.640;2022-08-01T00:17:26;41.99;34.22;49.93;;
69617;Laerm;58075;52.218;4.640;2022-08-01T00:17:36;40.63;35.17;51.09;;
69617;Laerm;58075;52.218;4.640;2022-08-01T00:17:46;42.71;36.07;53.48;;
69617;Laerm;58075;52.218;4.640;2022-08-01T00:17:57;40.41;35.15;50.65;;
69617;Laerm;58075;52.218;4.640;2022-08-01T00:18:07;38.04;35.07;42.24;;
69617;Laerm;58075;52.218;4.640;2022-08-01T00:18:17;38.03;35.01;42.14;;
69617;Laerm;58075;52.218;4.640;2022-08-01T00:18:28;37.09;33.63;41.55;;
69617;Laerm;58075;52.218;4.640;2022-08-01T00:18:38;36.87;33.67;43.44;;
69617;Laerm;58075;52.218;4.640;2022-08-01T00:18:51;41.32;36.65;44.81;;
69617;Laerm;58075;52.218;4.640;2022-08-01T00:19:02;38.19;34.75;42.47;;
69617;Laerm;58075;52.218;4.640;2022-08-01T00:19:12;37.78;33.29;44.93;;
69617;Laerm;58075;52.218;4.640;2022-08-01T00:19:22;36.96;32.98;44.06;;
69617;Laerm;58075;52.218;4.640;2022-08-01T00:19:33;39.73;33.32;47.86;;
69617;Laerm;58075;52.218;4.640;2022-08-01T00:19:43;38.06;34.73;44.53;;
69617;Laerm;58075;52.218;4.640;2022-08-01T00:19:53;36.45;33.17;40.05;;
69617;Laerm;58075;52.218;4.640;2022-08-01T00:20:05;36.58;33.59;40.48;;
69617;Laerm;58075;52.218;4.640;2022-08-01T00:20:15;35.41;32.45;39.70;;
69617;Laerm;58075;52.218;4.640;2022-08-01T00:20:26;37.12;34.08;41.04;;
69617;Laerm;58075;52.218;4.640;2022-08-01T00:20:36;35.93;33.55;39.19;;
69617;Laerm;58075;52.218;4.640;2022-08-01T00:20:47;35.86;33.29;38.82;;
69617;Laerm;58075;52.218;4.640;2022-08-01T00:20:57;35.60;32.46;39.04;;
69617;Laerm;58075;52.218;4.640;2022-08-01T00:21:07;37.91;33.95;41.97;;
69617;Laerm;58075;52.218;4.640;2022-08-01T00:21:18;40.17;34.22;45.11;;
69617;Laerm;58075;52.218;4.640;2022-08-01T00:21:28;37.61;33.74;42.41;;
69617;Laerm;58075;52.218;4.640;2022-08-01T00:21:38;36.92;33.35;44.84;;
69617;Laerm;58075;52.218;4.640;2022-08-01T00:21:48;36.61;33.32;43.66;;
69617;Laerm;58075;52.218;4.640;2022-08-01T00:21:59;36.36;32.45;40.86;;
69617;Laerm;58075;52.218;4.640;2022-08-01T00:22:09;36.00;32.53;40.66;;
69617;Laerm;58075;52.218;4.640;2022-08-01T00:22:20;37.29;33.52;42.80;;
69617;Laerm;58075;52.218;4.640;2022-08-01T00:22:30;39.53;33.97;44.23;;
69617;Laerm;58075;52.218;4.640;2022-08-01T00:22:41;37.21;32.89;43.30;;
69617;Laerm;58075;52.218;4.640;2022-08-01T00:22:51;39.04;32.50;44.16;;
69617;Laerm;58075;52.218;4.640;2022-08-01T00:23:02;34.94;32.44;38.54;;
69617;Laerm;58075;52.218;4.640;2022-08-01T00:23:12;35.93;32.12;41.74;;
69617;Laerm;58075;52.218;4.640;2022-08-01T00:23:23;35.97;33.10;39.52;;
69617;Laerm;58075;52.218;4.640;2022-08-01T00:23:33;36.02;32.53;42.59;;
69617;Laerm;58075;52.218;4.640;2022-08-01T00:23:43;35.50;32.34;40.03;;
69617;Laerm;58075;52.218;4.640;2022-08-01T00:23:55;38.12;33.85;41.48;;
69617;Laerm;58075;52.218;4.640;2022-08-01T00:24:05;40.78;35.76;44.76;;
69617;Laerm;58075;52.218;4.640;2022-08-01T00:24:16;38.10;34.61;40.35;;
69617;Laerm;58075;52.218;4.640;2022-08-01T00:24:26;35.51;32.98;38.22;;
69617;Laerm;58075;52.218;4.640;2022-08-01T00:24:36;36.00;32.03;41.79;;
69617;Laerm;58075;52.218;4.640;2022-08-01T00:24:47;35.29;32.18;40.46;;
69617;Laerm;58075;52.218;4.640;2022-08-01T00:24:57;35.18;32.66;39.99;;
69617;Laerm;58075;52.218;4.640;2022-08-01T00:25:07;35.60;33.07;41.85;;
69617;Laerm;58075;52.218;4.640;2022-08-01T00:25:18;36.07;32.73;40.35;;
69617;Laerm;58075;52.218;4.640;2022-08-01T00:25:28;34.60;31.89;40.08;;
69617;Laerm;58075;52.218;4.640;2022-08-01T00:25:38;35.00;31.94;39.47;;
69617;Laerm;58075;52.218;4.640;2022-08-01T00:25:48;33.78;31.15;38.31;;
69617;Laerm;58075;52.218;4.640;2022-08-01T00:25:59;36.77;32.62;39.90;;
69617;Laerm;58075;52.218;4.640;2022-08-01T00:26:09;37.40;32.29;42.44;;
69617;Laerm;58075;52.218;4.640;2022-08-01T00:26:19;35.61;32.97;38.37;;
69617;Laerm;58075;52.218;4.640;2022-08-01T00:26:30;36.05;33.20;39.82;;
69617;Laerm;58075;52.218;4.640;2022-08-01T00:26:40;37.06;33.75;40.80;;
69617;Laerm;58075;52.218;4.640;2022-08-01T00:26:50;36.71;33.86;40.33;;
69617;Laerm;58075;52.218;4.640;2022-08-01T00:27:00;36.99;34.27;39.48;;
69617;Laerm;58075;52.218;4.640;2022-08-01T00:27:11;37.79;33.84;42.32;;
69617;Laerm;58075;52.218;4.640;2022-08-01T00:27:21;39.83;36.55;44.86;;
69617;Laerm;58075;52.218;4.640;2022-08-01T00:27:31;37.22;34.29;40.74;;
69617;Laerm;58075;52.218;4.640;2022-08-01T00:27:42;36.70;33.77;43.53;;
69617;Laerm;58075;52.218;4.640;2022-08-01T00:27:52;35.81;33.10;40.38;;
69617;Laerm;58075;52.218;4.640;2022-08-01T00:28:03;36.41;32.74;42.41;;
69617;Laerm;58075;52.218;4.640;2022-08-01T00:28:13;35.08;32.27;39.82;;
69617;Laerm;58075;52.218;4.640;2022-08-01T00:28:24;36.09;33.71;39.26;;
69617;Laerm;58075;52.218;4.640;2022-08-01T00:28:34;36.28;33.55;39.26;;
69617;Laerm;58075;52.218;4.640;2022-08-01T00:28:44;36.89;32.95;42.52;;
69617;Laerm;58075;52.218;4.640;2022-08-01T00:28:55;36.63;33.32;42.18;;
69617;Laerm;58075;52.218;4.640;2022-08-01T00:29:05;37.12;33.22;40.62;;
69617;Laerm;58075;52.218;4.640;2022-08-01T00:29:15;36.43;33.34;39.72;;
69617;Laerm;58075;52.218;4.640;2022-08-01T00:29:26;35.84;32.71;41.05;;
69617;Laerm;58075;52.218;4.640;2022-08-01T00:29:36;38.62;33.91;44.15;;
69617;Laerm;58075;52.218;4.640;2022-08-01T00:29:46;42.09;36.65;49.88;;
69617;Laerm;58075;52.218;4.640;2022-08-01T00:29:56;42.37;37.00;47.22;;
69617;Laerm;58075;52.218;4.640;2022-08-01T00:30:07;41.91;36.49;47.21;;
69617;Laerm;58075;52.218;4.640;2022-08-01T00:30:17;37.57;34.49;42.29;;
69617;Laerm;58075;52.218;4.640;2022-08-01T00:30:28;37.28;32.96;40.76;;
69617;Laerm;58075;52.218;4.640;2022-08-01T00:30:38;33.45;31.48;35.60;;
69617;Laerm;58075;52.218;4.640;2022-08-01T00:30:48;37.04;33.67;40.77;;
69617;Laerm;58075;52.218;4.640;2022-08-01T00:30:58;34.03;32.44;37.30;;
69617;Laerm;58075;52.218;4.640;2022-08-01T00:31:09;37.39;32.91;42.01;;
69617;Laerm;58075;52.218;4.640;2022-08-01T00:31:19;35.88;32.31;40.01;;
69617;Laerm;58075;52.218;4.640;2022-08-01T00:31:29;37.37;32.93;44.03;;
69617;Laerm;58075;52.218;4.640;2022-08-01T00:31:40;34.26;32.34;37.48;;
69617;Laerm;58075;52.218;4.640;2022-08-01T00:31:50;38.55;34.32;41.91;;
69617;Laerm;58075;52.218;4.640;2022-08-01T00:32:00;39.38;35.82;43.39;;
69617;Laerm;58075;52.218;4.640;2022-08-01T00:32:10;37.85;33.43;41.94;;
69617;Laerm;58075;52.218;4.640;2022-08-01T00:32:21;34.64;32.48;37.24;;
69617;Laerm;58075;52.218;4.640;2022-08-01T00:32:31;34.90;32.40;38.35;;
69617;Laerm;58075;52.218;4.640;2022-08-01T00:32:42;36.20;33.33;43.90;;
69617;Laerm;58075;52.218;4.640;2022-08-01T00:32:52;38.60;33.56;46.45;;
69617;Laerm;58075;52.218;4.640;2022-08-01T00:33:03;40.10;34.15;46.23;;
69617;Laerm;58075;52.218;4.640;2022-08-01T00:33:13;40.65;35.15;46.72;;
69617;Laerm;58075;52.218;4.640;2022-08-01T00:33:23;38.19;34.61;41.95;;
69617;Laerm;58075;52.218;4.640;2022-08-01T00:33:33;35.97;32.55;39.42;;
69617;Laerm;58075;52.218;4.640;2022-08-01T00:33:44;35.36;32.52;39.90;;
69617;Laerm;58075;52.218;4.640;2022-08-01T00:33:54;32.82;30.51;34.95;;
69617;Laerm;58075;52.218;4.640;2022-08-01T00:34:04;34.22;31.44;38.82;;
69617;Laerm;58075;52.218;4.640;2022-08-01T00:34:15;34.60;31.66;38.89;;
69617;Laerm;58075;52.218;4.640;2022-08-01T00:34:25;34.02;31.78;36.34;;
69617;Laerm;58075;52.218;4.640;2022-08-01T00:34:35;35.59;31.81;41.95;;
69617;Laerm;58075;52.218;4.640;2022-08-01T00:34:45;37.23;31.98;44.51;;
69617;Laerm;58075;52.218;4.640;2022-08-01T00:34:56;37.72;33.59;44.30;;
69617;Laerm;58075;52.218;4.640;2022-08-01T00:35:06;39.44;33.94;44.17;;
69617;Laerm;58075;52.218;4.640;2022-08-01T00:35:16;37.71;34.73;43.22;;
69617;Laerm;58075;52.218;4.640;2022-08-01T00:35:27;38.25;33.83;42.73;;
69617;Laerm;58075;52.218;4.640;2022-08-01T00:35:37;36.14;33.31;43.90;;
69617;Laerm;58075;52.218;4.640;2022-08-01T00:35:47;36.00;33.04;43.86;;
69617;Laerm;58075;52.218;4.640;2022-08-01T00:35:58;36.31;32.95;43.32;;
69617;Laerm;58075;52.218;4.640;2022-08-01T00:36:08;37.40;33.87;43.53;;
69617;Laerm;58075;52.218;4.640;2022-08-01T00:36:18;38.10;35.04;42.26;;
69617;Laerm;58075;52.218;4.640;2022-08-01T00:36:29;36.47;33.44;41.08;;
69617;Laerm;58075;52.218;4.640;2022-08-01T00:36:39;36.52;33.59;41.39;;
69617;Laerm;58075;52.218;4.640;2022-08-01T00:36:50;36.54;33.09;42.81;;
69617;Laerm;58075;52.218;4.640;2022-08-01T00:37:00;35.51;32.62;41.07;;
69617;Laerm;58075;52.218;4.640;2022-08-01T00:37:10;37.05;32.88;41.28;;
69617;Laerm;58075;52.218;4.640;2022-08-01T00:37:21;37.06;33.85;42.69;;
69617;Laerm;58075;52.218;4.640;2022-08-01T00:37:31;37.57;33.61;43.96;;
69617;Laerm;58075;52.218;4.640;2022-08-01T00:37:41;35.21;31.88;41.05;;
69617;Laerm;58075;52.218;4.640;2022-08-01T00:37:51;34.56;32.29;37.18;;
69617;Laerm;58075;52.218;4.640;2022-08-01T00:38:02;36.46;33.55;40.87;;
69617;Laerm;58075;52.218;4.640;2022-08-01T00:38:12;40.03;34.80;45.73;;
69617;Laerm;58075;52.218;4.640;2022-08-01T00:38:23;37.23;33.36;44.26;;
69617;Laerm;58075;52.218;4.640;2022-08-01T00:38:33;38.06;33.43;46.49;;
69617;Laerm;58075;52.218;4.640;2022-08-01T00:38:43;39.09;34.02;43.13;;
69617;Laerm;58075;52.218;4.640;2022-08-01T00:38:54;37.23;33.97;40.93;;
69617;Laerm;58075;52.218;4.640;2022-08-01T00:39:04;36.77;32.69;43.17;;
69617;Laerm;58075;52.218;4.640;2022-08-01T00:39:17;36.83;33.99;42.21;;
69617;Laerm;58075;52.218;4.640;2022-08-01T00:39:27;40.09;34.04;46.12;;
69617;Laerm;58075;52.218;4.640;2022-08-01T00:39:37;38.41;34.51;41.34;;
69617;Laerm;58075;52.218;4.640;2022-08-01T00:39:48;38.08;35.27;43.88;;
69617;Laerm;58075;52.218;4.640;2022-08-01T00:39:58;37.10;33.14;41.41;;
69617;Laerm;58075;52.218;4.640;2022-08-01T00:40:08;37.17;33.15;40.62;;
69617;Laerm;58075;52.218;4.640;2022-08-01T00:40:19;37.77;34.74;42.71;;
69617;Laerm;58075;52.218;4.640;2022-08-01T00:40:29;38.25;34.18;44.27;;
69617;Laerm;58075;52.218;4.640;2022-08-01T00:40:39;36.31;32.81;41.32;;
69617;Laerm;58075;52.218;4.640;2022-08-01T00:40:49;35.48;32.71;39.87;;
69617;Laerm;58075;52.218;4.640;2022-08-01T00:41:00;36.03;32.42;38.99;;
69617;Laerm;58075;52.218;4.640;2022-08-01T00:41:10;35.27;32.90;44.02;;
69617;Laerm;58075;52.218;4.640;2022-08-01T00:41:20;35.86;33.11;41.13;;
69617;Laerm;58075;52.218;4.640;2022-08-01T00:41:31;39.59;33.69;46.81;;
69617;Laerm;58075;52.218;4.640;2022-08-01T00:41:41;36.88;33.65;42.27;;
69617;Laerm;58075;52.218;4.640;2022-08-01T00:41:51;36.57;33.68;42.00;;
69617;Laerm;58075;52.218;4.640;2022-08-01T00:42:11;37.86;35.21;44.96;;
69617;Laerm;58075;52.218;4.640;2022-08-01T00:42:22;39.06;32.50;46.38;;
69617;Laerm;58075;52.218;4.640;2022-08-01T00:42:32;32.89;30.48;35.50;;
69617;Laerm;58075;52.218;4.640;2022-08-01T00:42:42;34.38;31.67;39.77;;
69617;Laerm;58075;52.218;4.640;2022-08-01T00:42:53;35.96;32.84;41.21;;
69617;Laerm;58075;52.218;4.640;2022-08-01T00:43:03;36.97;34.09;42.53;;
69617;Laerm;58075;52.218;4.640;2022-08-01T00:43:13;40.15;35.22;44.09;;
69617;Laerm;58075;52.218;4.640;2022-08-01T00:43:24;39.23;36.15;43.43;;
69617;Laerm;58075;52.218;4.640;2022-08-01T00:43:34;40.70;36.39;45.48;;
69617;Laerm;58075;52.218;4.640;2022-08-01T00:43:44;45.63;36.85;55.58;;
69617;Laerm;58075;52.218;4.640;2022-08-01T00:43:55;43.37;35.45;49.60;;
69617;Laerm;58075;52.218;4.640;2022-08-01T00:44:05;39.06;34.76;43.44;;
69617;Laerm;58075;52.218;4.640;2022-08-01T00:44:16;36.22;32.10;41.55;;
69617;Laerm;58075;52.218;4.640;2022-08-01T00:44:26;34.64;31.71;41.81;;
69617;Laerm;58075;52.218;4.640;2022-08-01T00:44:37;35.07;32.75;38.48;;
69617;Laerm;58075;52.218;4.640;2022-08-01T00:44:47;37.74;34.01;42.02;;
69617;Laerm;58075;52.218;4.640;2022-08-01T00:44:57;38.65;35.61;43.40;;
69617;Laerm;58075;52.218;4.640;2022-08-01T00:45:08;38.73;35.65;43.82;;
69617;Laerm;58075;52.218;4.640;2022-08-01T00:45:18;39.12;34.25;43.31;;
69617;Laerm;58075;52.218;4.640;2022-08-01T00:45:29;38.42;34.82;47.86;;
69617;Laerm;58075;52.218;4.640;2022-08-01T00:45:39;38.96;34.94;42.38;;
69617;Laerm;58075;52.218;4.640;2022-08-01T00:45:49;38.76;34.70;44.29;;
69617;Laerm;58075;52.218;4.640;2022-08-01T00:46:00;40.80;36.21;44.83;;
69617;Laerm;58075;52.218;4.640;2022-08-01T00:46:10;39.70;34.96;43.91;;
69617;Laerm;58075;52.218;4.640;2022-08-01T00:46:20;38.78;34.68;44.72;;
69617;Laerm;58075;52.218;4.640;2022-08-01T00:46:31;38.94;34.74;45.31;;
69617;Laerm;58075;52.218;4.640;2022-08-01T00:46:41;39.70;35.60;45.31;;
69617;Laerm;58075;52.218;4.640;2022-08-01T00:46:52;41.94;37.98;46.75;;
69617;Laerm;58075;52.218;4.640;2022-08-01T00:47:02;39.99;34.86;46.77;;
69617;Laerm;58075;52.218;4.640;2022-08-01T00:47:13;39.99;36.01;45.92;;
69617;Laerm;58075;52.218;4.640;2022-08-01T00:47:23;37.24;34.02;42.45;;
69617;Laerm;58075;52.218;4.640;2022-08-01T00:47:33;37.81;33.49;45.54;;
69617;Laerm;58075;52.218;4.640;2022-08-01T00:47:44;37.46;33.76;42.60;;
69617;Laerm;58075;52.218;4.640;2022-08-01T00:47:54;37.19;33.29;42.07;;
69617;Laerm;58075;52.218;4.640;2022-08-01T00:48:04;38.78;34.43;45.23;;
69617;Laerm;58075;52.218;4.640;2022-08-01T00:48:15;37.52;32.99;45.24;;
69617;Laerm;58075;52.218;4.640;2022-08-01T00:48:25;36.22;32.91;40.64;;
69617;Laerm;58075;52.218;4.640;2022-08-01T00:48:35;36.19;32.67;42.40;;
69617;Laerm;58075;52.218;4.640;2022-08-01T00:48:46;35.94;31.79;51.57;;
69617;Laerm;58075;52.218;4.640;2022-08-01T00:48:56;37.36;33.04;43.54;;
69617;Laerm;58075;52.218;4.640;2022-08-01T00:49:07;37.32;33.49;40.83;;
69617;Laerm;58075;52.218;4.640;2022-08-01T00:49:17;41.26;35.61;46.04;;
69617;Laerm;58075;52.218;4.640;2022-08-01T00:49:27;42.51;36.91;47.83;;
69617;Laerm;58075;52.218;4.640;2022-08-01T00:49:38;45.12;37.26;49.58;;
69617;Laerm;58075;52.218;4.640;2022-08-01T00:49:48;42.08;36.33;47.59;;
69617;Laerm;58075;52.218;4.640;2022-08-01T00:49:59;40.19;35.15;45.97;;
69617;Laerm;58075;52.218;4.640;2022-08-01T00:50:09;38.17;34.77;43.19;;
69617;Laerm;58075;52.218;4.640;2022-08-01T00:50:19;37.80;33.98;44.92;;
69617;Laerm;58075;52.218;4.640;2022-08-01T00:50:30;37.14;33.08;44.05;;
69617;Laerm;58075;52.218;4.640;2022-08-01T00:50:40;39.35;35.31;46.12;;
69617;Laerm;58075;52.218;4.640;2022-08-01T00:50:51;39.58;35.77;44.17;;
69617;Laerm;58075;52.218;4.640;2022-08-01T00:51:02;38.27;32.88;45.43;;
69617;Laerm;58075;52.218;4.640;2022-08-01T00:51:13;39.80;33.09;47.59;;
69617;Laerm;58075;52.218;4.640;2022-08-01T00:51:23;40.85;35.53;45.29;;
69617;Laerm;58075;52.218;4.640;2022-08-01T00:51:34;42.91;36.59;47.41;;
69617;Laerm;58075;52.218;4.640;2022-08-01T00:51:44;42.48;37.58;46.20;;
69617;Laerm;58075;52.218;4.640;2022-08-01T00:51:55;39.65;37.02;43.54;;
69617;Laerm;58075;52.218;4.640;2022-08-01T00:52:05;38.48;34.67;42.59;;
69617;Laerm;58075;52.218;4.640;2022-08-01T00:52:16;35.69;32.38;40.19;;
69617;Laerm;58075;52.218;4.640;2022-08-01T00:52:26;35.84;32.64;40.63;;
69617;Laerm;58075;52.218;4.640;2022-08-01T00:52:37;38.11;33.85;43.30;;
69617;Laerm;58075;52.218;4.640;2022-08-01T00:52:48;37.51;33.20;42.59;;
69617;Laerm;58075;52.218;4.640;2022-08-01T00:52:59;36.59;32.55;45.56;;
69617;Laerm;58075;52.218;4.640;2022-08-01T00:53:09;36.27;32.77;40.40;;
69617;Laerm;58075;52.218;4.640;2022-08-01T00:53:20;35.56;32.17;41.70;;
69617;Laerm;58075;52.218;4.640;2022-08-01T00:53:30;40.22;33.52;45.63;;
69617;Laerm;58075;52.218;4.640;2022-08-01T00:53:41;37.24;34.09;42.93;;
69617;Laerm;58075;52.218;4.640;2022-08-01T00:53:51;37.09;33.14;41.22;;
69617;Laerm;58075;52.218;4.640;2022-08-01T00:54:02;39.03;35.17;45.05;;
69617;Laerm;58075;52.218;4.640;2022-08-01T00:54:12;36.49;32.94;44.12;;
69617;Laerm;58075;52.218;4.640;2022-08-01T00:54:23;37.07;32.59;42.64;;
69617;Laerm;58075;52.218;4.640;2022-08-01T00:54:34;36.99;33.45;43.14;;
69617;Laerm;58075;52.218;4.640;2022-08-01T00:54:44;38.85;34.39;45.36;;
69617;Laerm;58075;52.218;4.640;2022-08-01T00:54:55;37.31;34.28;41.76;;
69617;Laerm;58075;52.218;4.640;2022-08-01T00:55:05;38.41;33.83;42.54;;
69617;Laerm;58075;52.218;4.640;2022-08-01T00:55:16;38.73;33.51;48.65;;
69617;Laerm;58075;52.218;4.640;2022-08-01T00:55:28;41.32;36.60;47.30;;
69617;Laerm;58075;52.218;4.640;2022-08-01T00:55:38;36.73;33.22;41.07;;
69617;Laerm;58075;52.218;4.640;2022-08-01T00:55:49;36.68;33.54;43.32;;
69617;Laerm;58075;52.218;4.640;2022-08-01T00:55:59;36.74;34.14;45.45;;
69617;Laerm;58075;52.218;4.640;2022-08-01T00:56:10;38.92;34.89;43.36;;
69617;Laerm;58075;52.218;4.640;2022-08-01T00:56:21;39.92;36.00;45.06;;
69617;Laerm;58075;52.218;4.640;2022-08-01T00:56:33;36.58;32.09;42.03;;
69617;Laerm;58075;52.218;4.640;2022-08-01T00:56:44;36.90;32.24;40.82;;
69617;Laerm;58075;52.218;4.640;2022-08-01T00:56:54;37.19;33.43;41.46;;
69617;Laerm;58075;52.218;4.640;2022-08-01T00:57:05;35.81;32.81;42.17;;
69617;Laerm;58075;52.218;4.640;2022-08-01T00:57:15;39.40;32.49;47.07;;
69617;Laerm;58075;52.218;4.640;2022-08-01T00:57:25;39.40;32.62;47.47;;
69617;Laerm;58075;52.218;4.640;2022-08-01T00:57:36;39.13;35.36;44.42;;
69617;Laerm;58075;52.218;4.640;2022-08-01T00:57:47;40.32;36.72;45.39;;
69617;Laerm;58075;52.218;4.640;2022-08-01T00:57:58;39.08;34.22;46.04;;
69617;Laerm;58075;52.218;4.640;2022-08-01T00:58:08;40.01;35.91;47.82;;
69617;Laerm;58075;52.218;4.640;2022-08-01T00:58:18;39.91;34.71;44.98;;
69617;Laerm;58075;52.218;4.640;2022-08-01T00:58:29;38.50;34.78;43.95;;
69617;Laerm;58075;52.218;4.640;2022-08-01T00:58:42;37.28;33.39;42.55;;